Bangkok Bridge — 3FTZ8 — position and weather

sailwx.info

Track history (hours):
 
Tides and Currents Weather Stations Pressure Air Temp Water Temp Dewpoint Dewpoint Depression Visibility Wind Speed Wind Dir Waves Ship Positions

Bangkok Bridge

Last reported at 2018-Jun-16 13:28 UTC. Time now 2018-Jun-21 17:54 UTC.
Position N 35°03' E 139°43'.

Length 267 m; draft 11 m.

Type: Ship (hazmat cat A). MMSI: 353368000.

Date/timePositionNaut miles runAvg speedWind from/ knotsBaromVisibWave heightAir tempDewpointWater temp
2018-Jun-16 13:28N 35°03' E 139°43'817.1
2018-Jun-16 13:00N 35°11' E 139°45'611.4
2018-Jun-16 12:30N 35°17' E 139°45'713.4
2018-Jun-16 12:00N 35°23' E 139°42'816.7
2018-Jun-16 11:30N 35°29' E 139°50'612.8
2018-Jun-16 11:00N 35°35' E 139°48'2 4.5
2018-Jun-16 10:29N 35°37' E 139°46'0 0.0
2018-Jun-16 10:00N 35°37' E 139°46'0 0.0
2018-Jun-16 09:25N 35°37' E 139°46'0 0.0
2018-Jun-16 06:32N 35°37' E 139°46'0 0.0
2018-Jun-16 06:25N 35°37' E 139°46'0 0.0
2018-Jun-16 04:43N 35°37' E 139°46'0 0.0
2018-Jun-16 04:25N 35°37' E 139°46'0 0.0
2018-Jun-16 03:37N 35°37' E 139°46'0 0.0
2018-Jun-16 03:25N 35°37' E 139°46'0 0.0
2018-Jun-15 22:52N 35°37' E 139°46'0 0.1
2018-Jun-15 22:20N 35°37' E 139°46'1 2.1
2018-Jun-15 22:00N 35°36' E 139°46'3 7.0
2018-Jun-15 21:30N 35°34' E 139°49'610.9
2018-Jun-15 20:59N 35°28' E 139°51'714.3
2018-Jun-15 20:30N 35°23' E 139°46'611.2
2018-Jun-15 20:01N 35°18' E 139°45'612.2
2018-Jun-15 19:31N 35°12' E 139°47'4 8.7
2018-Jun-15 19:01N 35°07' E 139°46'4 7.2
2018-Jun-15 18:30N 35°04' E 139°44'4 8.3
2018-Jun-15 18:00N 35°00' E 139°42'  
2018-Jun-13 09:47N 33°45' E 135°04'516.5
2018-Jun-13 09:30N 33°49' E 135°01'815.6
2018-Jun-13 08:57N 33°57' E 134°58'715.8
2018-Jun-13 08:30N 34°04' E 134°58'816.7
2018-Jun-13 08:00N 34°12' E 134°58'713.5
2018-Jun-13 07:30N 34°19' E 134°59'918.1
2018-Jun-13 07:00N 34°27' E 135°05'918.9
2018-Jun-13 06:30N 34°34' E 135°13'713.4
2018-Jun-13 06:00N 34°40' E 135°15'1 1.3
2018-Jun-13 05:26N 34°41' E 135°16'0 0.0
2018-Jun-13 04:56N 34°41' E 135°16'0 0.0
2018-Jun-13 04:25N 34°41' E 135°16'0 0.0
2018-Jun-13 03:55N 34°41' E 135°16'0 0.0
2018-Jun-13 03:25N 34°41' E 135°16'0 0.0
2018-Jun-13 02:55N 34°41' E 135°16'0 0.0
2018-Jun-13 02:25N 34°41' E 135°16'0 0.0
2018-Jun-13 01:49N 34°41' E 135°16'0 0.0
2018-Jun-13 01:25N 34°41' E 135°16'0 0.0
2018-Jun-13 00:55N 34°41' E 135°16'0 0.0
2018-Jun-13 00:25N 34°41' E 135°16'0 0.0
2018-Jun-12 23:55N 34°41' E 135°16'0 0.0
2018-Jun-12 23:19N 34°41' E 135°16'0 0.0
2018-Jun-12 22:55N 34°41' E 135°16'0 0.0
2018-Jun-12 22:25N 34°41' E 135°16'0 0.0
2018-Jun-12 21:55N 34°41' E 135°16'0 0.0
2018-Jun-12 21:25N 34°41' E 135°16'0 0.0
2018-Jun-12 20:55N 34°41' E 135°16'0 0.0
2018-Jun-12 20:25N 34°41' E 135°16'0 0.0
2018-Jun-12 19:55N 34°41' E 135°16'0 0.0
2018-Jun-12 19:25N 34°41' E 135°16'0 0.0
2018-Jun-12 18:55N 34°41' E 135°16'0 0.0
2018-Jun-12 18:25N 34°41' E 135°16'0 0.0
2018-Jun-12 17:56N 34°41' E 135°16'0 0.0
2018-Jun-12 17:25N 34°41' E 135°16'0 0.0
2018-Jun-12 16:55N 34°41' E 135°16'0 0.0
2018-Jun-12 16:25N 34°41' E 135°16'0 0.0
2018-Jun-12 15:55N 34°41' E 135°16'0 0.0
2018-Jun-12 15:25N 34°41' E 135°16'0 0.0
2018-Jun-12 14:55N 34°41' E 135°16'0 0.0
2018-Jun-12 14:13N 34°41' E 135°16'0 0.0
2018-Jun-12 13:55N 34°41' E 135°16'0 0.0
2018-Jun-12 13:25N 34°41' E 135°16'0 0.0
2018-Jun-12 12:55N 34°41' E 135°16'0 0.0
2018-Jun-12 12:25N 34°41' E 135°16'0 0.0
2018-Jun-12 11:55N 34°41' E 135°16'0 0.0
2018-Jun-12 11:25N 34°41' E 135°16'0 0.0
2018-Jun-12 10:55N 34°41' E 135°16'0 0.0
2018-Jun-12 10:25N 34°41' E 135°16'0 0.0
2018-Jun-12 09:55N 34°41' E 135°16'0 0.0
2018-Jun-12 09:26N 34°41' E 135°16'1 1.2
2018-Jun-12 09:00N 34°40' E 135°15'4 7.2
2018-Jun-12 08:30N 34°37' E 135°16'611.6
2018-Jun-12 08:00N 34°32' E 135°13'612.2
2018-Jun-12 07:30N 34°27' E 135°09'816.5
2018-Jun-12 07:00N 34°20' E 135°03'816.1
2018-Jun-12 06:30N 34°13' E 134°59'612.3
2018-Jun-12 06:00N 34°07' E 134°59'713.1
2018-Jun-12 05:30N 34°00' E 134°60'712.7
2018-Jun-12 05:00N 33°54' E 134°59'714.4
2018-Jun-12 04:31N 33°47' E 135°01'815.0
2018-Jun-12 03:59N 33°40' E 135°06'814.6
2018-Jun-12 03:24N 33°34' E 135°13'23516.9
2018-Jun-11 13:29N 35°02' E 139°37'1019.9
2018-Jun-11 13:00N 35°09' E 139°45'713.0
2018-Jun-11 12:30N 35°16' E 139°46'613.3
2018-Jun-11 12:00N 35°21' E 139°42'714.7
2018-Jun-11 11:31N 35°27' E 139°48'713.2
2018-Jun-11 11:01N 35°34' E 139°49'4 7.5
2018-Jun-11 10:30N 35°37' E 139°46'0 0.0
2018-Jun-10 22:40N 35°37' E 139°46'0 0.0
2018-Jun-10 22:26N 35°37' E 139°46'1 1.3
2018-Jun-10 21:58N 35°36' E 139°46'4 7.7
2018-Jun-10 21:30N 35°34' E 139°49'610.6
2018-Jun-10 20:56N 35°28' E 139°51'613.7
2018-Jun-10 20:30N 35°23' E 139°46'611.7
2018-Jun-10 20:00N 35°18' E 139°45'611.8
2018-Jun-10 19:30N 35°12' E 139°47'4 8.7
2018-Jun-10 19:00N 35°07' E 139°46'4 7.2
2018-Jun-10 18:29N 35°04' E 139°44'5 8.2
2018-Jun-10 17:55N 34°60' E 139°42'  
2018-Jun-07 23:00N 47°06' E 159°30'   210 / 41000.0 0.3 6.0 15.0
Track history (hours):
 
Tides and Currents Weather Stations Pressure Air Temp Water Temp Dewpoint Dewpoint Depression Visibility Wind Speed Wind Dir Waves Ship Positions

Bangkok Bridge

Last reported at 2018-Jun-16 13:28 UTC. Time now 2018-Jun-21 17:54 UTC.
Position N 35°03' E 139°43'.

Length 267 m; draft 11 m.

Type: Ship (hazmat cat A). MMSI: 353368000.

Date/timePositionNaut miles runAvg speedWind from/ knotsBaromVisibWave heightAir tempDewpointWater temp
2018-Jun-16 13:28N 35°03' E 139°43'817.1
2018-Jun-16 13:00N 35°11' E 139°45'611.4
2018-Jun-16 12:30N 35°17' E 139°45'713.4
2018-Jun-16 12:00N 35°23' E 139°42'816.7
2018-Jun-16 11:30N 35°29' E 139°50'612.8
2018-Jun-16 11:00N 35°35' E 139°48'2 4.5
2018-Jun-16 10:29N 35°37' E 139°46'0 0.0
2018-Jun-16 10:00N 35°37' E 139°46'0 0.0
2018-Jun-16 09:25N 35°37' E 139°46'0 0.0
2018-Jun-16 06:32N 35°37' E 139°46'0 0.0
2018-Jun-16 06:25N 35°37' E 139°46'0 0.0
2018-Jun-16 04:43N 35°37' E 139°46'0 0.0
2018-Jun-16 04:25N 35°37' E 139°46'0 0.0
2018-Jun-16 03:37N 35°37' E 139°46'0 0.0
2018-Jun-16 03:25N 35°37' E 139°46'0 0.0
2018-Jun-15 22:52N 35°37' E 139°46'0 0.1
2018-Jun-15 22:20N 35°37' E 139°46'1 2.1
2018-Jun-15 22:00N 35°36' E 139°46'3 7.0
2018-Jun-15 21:30N 35°34' E 139°49'610.9
2018-Jun-15 20:59N 35°28' E 139°51'714.3
2018-Jun-15 20:30N 35°23' E 139°46'611.2
2018-Jun-15 20:01N 35°18' E 139°45'612.2
2018-Jun-15 19:31N 35°12' E 139°47'4 8.7
2018-Jun-15 19:01N 35°07' E 139°46'4 7.2
2018-Jun-15 18:30N 35°04' E 139°44'4 8.3
2018-Jun-15 18:00N 35°00' E 139°42'  
2018-Jun-13 09:47N 33°45' E 135°04'516.5
2018-Jun-13 09:30N 33°49' E 135°01'815.6
2018-Jun-13 08:57N 33°57' E 134°58'715.8
2018-Jun-13 08:30N 34°04' E 134°58'816.7
2018-Jun-13 08:00N 34°12' E 134°58'713.5
2018-Jun-13 07:30N 34°19' E 134°59'918.1
2018-Jun-13 07:00N 34°27' E 135°05'918.9
2018-Jun-13 06:30N 34°34' E 135°13'713.4
2018-Jun-13 06:00N 34°40' E 135°15'1 1.3
2018-Jun-13 05:26N 34°41' E 135°16'0 0.0
2018-Jun-13 04:56N 34°41' E 135°16'0 0.0
2018-Jun-13 04:25N 34°41' E 135°16'0 0.0
2018-Jun-13 03:55N 34°41' E 135°16'0 0.0
2018-Jun-13 03:25N 34°41' E 135°16'0 0.0
2018-Jun-13 02:55N 34°41' E 135°16'0 0.0
2018-Jun-13 02:25N 34°41' E 135°16'0 0.0
2018-Jun-13 01:49N 34°41' E 135°16'0 0.0
2018-Jun-13 01:25N 34°41' E 135°16'0 0.0
2018-Jun-13 00:55N 34°41' E 135°16'0 0.0
2018-Jun-13 00:25N 34°41' E 135°16'0 0.0
2018-Jun-12 23:55N 34°41' E 135°16'0 0.0
2018-Jun-12 23:19N 34°41' E 135°16'0 0.0
2018-Jun-12 22:55N 34°41' E 135°16'0 0.0
2018-Jun-12 22:25N 34°41' E 135°16'0 0.0
2018-Jun-12 21:55N 34°41' E 135°16'0 0.0
2018-Jun-12 21:25N 34°41' E 135°16'0 0.0
2018-Jun-12 20:55N 34°41' E 135°16'0 0.0
2018-Jun-12 20:25N 34°41' E 135°16'0 0.0
2018-Jun-12 19:55N 34°41' E 135°16'0 0.0
2018-Jun-12 19:25N 34°41' E 135°16'0 0.0
2018-Jun-12 18:55N 34°41' E 135°16'0 0.0
2018-Jun-12 18:25N 34°41' E 135°16'0 0.0
2018-Jun-12 17:56N 34°41' E 135°16'0 0.0
2018-Jun-12 17:25N 34°41' E 135°16'0 0.0
2018-Jun-12 16:55N 34°41' E 135°16'0 0.0
2018-Jun-12 16:25N 34°41' E 135°16'0 0.0
2018-Jun-12 15:55N 34°41' E 135°16'0 0.0
2018-Jun-12 15:25N 34°41' E 135°16'0 0.0
2018-Jun-12 14:55N 34°41' E 135°16'0 0.0
2018-Jun-12 14:13N 34°41' E 135°16'0 0.0
2018-Jun-12 13:55N 34°41' E 135°16'0 0.0
2018-Jun-12 13:25N 34°41' E 135°16'0 0.0
2018-Jun-12 12:55N 34°41' E 135°16'0 0.0
2018-Jun-12 12:25N 34°41' E 135°16'0 0.0
2018-Jun-12 11:55N 34°41' E 135°16'0 0.0
2018-Jun-12 11:25N 34°41' E 135°16'0 0.0
2018-Jun-12 10:55N 34°41' E 135°16'0 0.0
2018-Jun-12 10:25N 34°41' E 135°16'0 0.0
2018-Jun-12 09:55N 34°41' E 135°16'0 0.0
2018-Jun-12 09:26N 34°41' E 135°16'1 1.2
2018-Jun-12 09:00N 34°40' E 135°15'4 7.2
2018-Jun-12 08:30N 34°37' E 135°16'611.6
2018-Jun-12 08:00N 34°32' E 135°13'612.2
2018-Jun-12 07:30N 34°27' E 135°09'816.5
2018-Jun-12 07:00N 34°20' E 135°03'816.1
2018-Jun-12 06:30N 34°13' E 134°59'612.3
2018-Jun-12 06:00N 34°07' E 134°59'713.1
2018-Jun-12 05:30N 34°00' E 134°60'712.7
2018-Jun-12 05:00N 33°54' E 134°59'714.4
2018-Jun-12 04:31N 33°47' E 135°01'815.0
2018-Jun-12 03:59N 33°40' E 135°06'814.6
2018-Jun-12 03:24N 33°34' E 135°13'23516.9
2018-Jun-11 13:29N 35°02' E 139°37'1019.9
2018-Jun-11 13:00N 35°09' E 139°45'713.0
2018-Jun-11 12:30N 35°16' E 139°46'613.3
2018-Jun-11 12:00N 35°21' E 139°42'714.7
2018-Jun-11 11:31N 35°27' E 139°48'713.2
2018-Jun-11 11:01N 35°34' E 139°49'4 7.5
2018-Jun-11 10:30N 35°37' E 139°46'0 0.0
2018-Jun-10 22:40N 35°37' E 139°46'0 0.0
2018-Jun-10 22:26N 35°37' E 139°46'1 1.3
2018-Jun-10 21:58N 35°36' E 139°46'4 7.7
2018-Jun-10 21:30N 35°34' E 139°49'610.6
2018-Jun-10 20:56N 35°28' E 139°51'613.7
2018-Jun-10 20:30N 35°23' E 139°46'611.7
2018-Jun-10 20:00N 35°18' E 139°45'611.8
2018-Jun-10 19:30N 35°12' E 139°47'4 8.7
2018-Jun-10 19:00N 35°07' E 139°46'4 7.2
2018-Jun-10 18:29N 35°04' E 139°44'5 8.2
2018-Jun-10 17:55N 34°60' E 139°42'  
2018-Jun-07 23:00N 47°06' E 159°30'   210 / 41000.0 0.3 6.0 15.0

Dump ship's entire track history